Time;durP1;ratioP1;P1;durP2;ratioP2;P2;SDS_P1;SDS_P2;PMS_P1;PMS_P2;Temp;Humidity;BMP_temperature;BMP_pressure;BME280_temperature;BME280_humidity;BME280_pressure;Samples;Min_cycle;Max_cycle;Signal;HPM_P1;HPM_P2
2022/03/14 00:01:39;;;;;;;;;;;15.40;64.50;;;;;;5247931;28;19924;-33
2022/03/14 00:04:10;;;;;;;;;;;15.50;64.50;;;;;;5248636;28;19931;-29
2022/03/14 00:06:43;;;;;;;;;;;15.50;64.70;;;;;;5248332;28;20305;-31
2022/03/14 00:09:14;;;;;;;;;;;15.50;64.60;;;;;;5229967;28;20397;-31
2022/03/14 00:11:45;;;;;;;;;;;15.50;64.70;;;;;;5248577;28;19932;-29
2022/03/14 00:14:17;;;;;;;;;;;15.50;64.70;;;;;;5248615;28;19970;-29
2022/03/14 00:16:48;;;;;;;;;;;15.50;64.70;;;;;;5248383;28;19924;-28
2022/03/14 00:19:20;;;;;;;;;;;15.50;64.80;;;;;;5248725;28;19931;-29
2022/03/14 00:21:51;;;;;;;;;;;15.50;64.90;;;;;;5248405;28;19928;-31
2022/03/14 00:24:22;;;;;;;;;;;15.50;64.90;;;;;;5252226;28;19947;-31
2022/03/14 00:26:54;;;;;;;;;;;15.50;64.90;;;;;;5252736;28;20045;-30
2022/03/14 00:29:28;;;;;;;;;;;15.50;65.00;;;;;;5252605;28;19930;-31
2022/03/14 00:32:00;;;;;;;;;;;15.40;65.10;;;;;;5251081;28;19933;-28
2022/03/14 00:34:31;;;;;;;;;;;15.40;65.20;;;;;;5251861;28;19924;-32
2022/03/14 00:37:02;;;;;;;;;;;15.40;65.20;;;;;;5252109;28;20387;-29
2022/03/14 00:39:33;;;;;;;;;;;15.40;65.30;;;;;;5252438;28;19978;-32
2022/03/14 00:42:04;;;;;;;;;;;15.40;65.20;;;;;;5251925;28;19929;-29
2022/03/14 00:44:34;;;;;;;;;;;15.40;65.30;;;;;;5252077;28;19924;-29
2022/03/14 00:47:06;;;;;;;;;;;15.40;65.40;;;;;;5234495;28;20369;-29
2022/03/14 00:49:36;;;;;;;;;;;15.40;65.40;;;;;;5252532;28;19977;-28
2022/03/14 00:52:07;;;;;;;;;;;15.30;65.50;;;;;;5250382;28;20354;-32
2022/03/14 00:54:38;;;;;;;;;;;15.30;65.40;;;;;;5251954;28;19925;-29
2022/03/14 00:57:09;;;;;;;;;;;15.30;65.50;;;;;;5252251;28;19928;-29
2022/03/14 00:59:40;;;;;;;;;;;15.30;65.50;;;;;;5252831;28;19931;-30
2022/03/14 01:02:12;;;;;;;;;;;15.20;65.60;;;;;;5252235;28;20301;-28
2022/03/14 01:04:43;;;;;;;;;;;15.30;65.60;;;;;;5234280;28;19932;-29
2022/03/14 01:07:14;;;;;;;;;;;15.20;65.70;;;;;;5251952;28;19950;-29
2022/03/14 01:09:44;;;;;;;;;;;15.20;65.60;;;;;;5251986;28;19925;-29
2022/03/14 01:12:15;;;;;;;;;;;15.20;65.70;;;;;;5251464;28;19970;-32
2022/03/14 01:14:46;;;;;;;;;;;15.20;65.80;;;;;;5251632;28;19924;-30
2022/03/14 01:17:17;;;;;;;;;;;15.20;65.80;;;;;;5251796;28;19924;-29
2022/03/14 01:19:48;;;;;;;;;;;15.20;65.90;;;;;;5251087;28;20336;-29
2022/03/14 01:22:19;;;;;;;;;;;15.10;65.80;;;;;;5251096;28;19977;-29
2022/03/14 01:24:50;;;;;;;;;;;15.10;65.80;;;;;;5251646;28;19925;-29
2022/03/14 01:27:21;;;;;;;;;;;15.10;65.90;;;;;;5217208;28;20298;-29
2022/03/14 01:29:51;;;;;;;;;;;15.10;65.90;;;;;;5251214;28;19928;-31
2022/03/14 01:32:22;;;;;;;;;;;15.00;65.80;;;;;;5251841;28;19924;-29
2022/03/14 01:34:53;;;;;;;;;;;15.10;66.00;;;;;;5251437;28;20378;-30
2022/03/14 01:37:24;;;;;;;;;;;15.10;66.10;;;;;;5251547;28;19935;-29
2022/03/14 01:39:55;;;;;;;;;;;15.00;66.10;;;;;;5250359;28;20423;-29
2022/03/14 01:42:26;;;;;;;;;;;15.00;66.30;;;;;;5251536;28;19932;-29
2022/03/14 01:44:57;;;;;;;;;;;15.00;66.50;;;;;;5251338;28;19924;-29
2022/03/14 01:47:28;;;;;;;;;;;15.00;66.30;;;;;;5251589;28;19932;-29
2022/03/14 01:49:59;;;;;;;;;;;15.00;66.40;;;;;;5251235;28;20270;-31
2022/03/14 01:52:30;;;;;;;;;;;14.90;66.30;;;;;;5251362;28;19924;-30
2022/03/14 01:55:01;;;;;;;;;;;15.00;66.20;;;;;;5233090;28;19925;-29
2022/03/14 01:57:32;;;;;;;;;;;15.00;66.40;;;;;;5250745;28;19935;-30
2022/03/14 02:00:04;;;;;;;;;;;14.90;66.50;;;;;;5250879;28;19924;-29
2022/03/14 02:02:35;;;;;;;;;;;14.90;66.50;;;;;;5251172;28;20308;-29
2022/03/14 02:05:06;;;;;;;;;;;14.90;66.50;;;;;;5251032;28;19977;-29
2022/03/14 02:07:37;;;;;;;;;;;14.90;66.50;;;;;;5233082;28;20378;-32
2022/03/14 02:10:08;;;;;;;;;;;14.90;66.80;;;;;;5251376;28;20017;-29
2022/03/14 02:12:43;;;;;;;;;;;14.90;66.50;;;;;;5251119;28;19950;-29
2022/03/14 02:15:14;;;;;;;;;;;14.90;66.30;;;;;;5250427;28;19928;-32
2022/03/14 02:17:45;;;;;;;;;;;14.90;66.30;;;;;;5250842;28;19932;-32
2022/03/14 02:20:16;;;;;;;;;;;14.90;66.50;;;;;;5250454;28;20309;-29
2022/03/14 02:22:47;;;;;;;;;;;14.80;66.40;;;;;;5250333;28;19978;-29
2022/03/14 02:25:18;;;;;;;;;;;14.80;66.40;;;;;;5250523;28;19924;-31
2022/03/14 02:27:49;;;;;;;;;;;14.80;66.50;;;;;;5250279;28;19924;-29
2022/03/14 02:30:22;;;;;;;;;;;14.80;66.50;;;;;;5232344;28;20289;-32
2022/03/14 02:32:53;;;;;;;;;;;14.80;66.40;;;;;;5250278;28;20361;-32
2022/03/14 02:35:24;;;;;;;;;;;14.80;66.30;;;;;;5248439;28;19943;-30
2022/03/14 02:37:55;;;;;;;;;;;14.80;66.20;;;;;;5250337;28;19925;-32
2022/03/14 02:40:26;;;;;;;;;;;14.80;66.30;;;;;;5249816;28;19924;-29
2022/03/14 02:42:57;;;;;;;;;;;14.80;66.30;;;;;;5250157;28;20328;-29
2022/03/14 02:45:30;;;;;;;;;;;14.70;66.30;;;;;;5232058;28;19978;-33
2022/03/14 02:48:01;;;;;;;;;;;14.70;66.90;;;;;;5250098;28;20431;-32
2022/03/14 02:50:32;;;;;;;;;;;14.70;66.20;;;;;;5249881;28;19925;-29
2022/03/14 02:53:03;;;;;;;;;;;14.70;66.30;;;;;;5249626;28;19924;-29
2022/03/14 02:55:34;;;;;;;;;;;14.70;66.40;;;;;;5249848;28;20285;-29
2022/03/14 02:58:05;;;;;;;;;;;14.70;66.50;;;;;;5249913;28;19924;-28
2022/03/14 03:00:37;;;;;;;;;;;14.70;66.40;;;;;;5249228;28;19924;-29
2022/03/14 03:03:10;;;;;;;;;;;14.70;66.40;;;;;;5248392;28;19925;-31
2022/03/14 03:05:43;;;;;;;;;;;14.70;66.30;;;;;;5249340;28;19963;-32
2022/03/14 03:08:14;;;;;;;;;;;14.70;66.40;;;;;;5249468;28;19932;-30
2022/03/14 03:10:47;;;;;;;;;;;14.70;66.60;;;;;;5249672;28;19924;-29
2022/03/14 03:13:19;;;;;;;;;;;14.70;66.60;;;;;;5249506;28;19967;-32
2022/03/14 03:15:50;;;;;;;;;;;14.70;66.70;;;;;;5249398;28;19931;-31
2022/03/14 03:18:23;;;;;;;;;;;14.60;66.60;;;;;;5247643;28;19967;-29
2022/03/14 03:20:53;;;;;;;;;;;14.70;66.50;;;;;;5249234;28;19935;-29
2022/03/14 03:23:24;;;;;;;;;;;14.70;67.10;;;;;;5249745;28;19928;-32
2022/03/14 03:25:55;;;;;;;;;;;14.60;66.70;;;;;;5249235;28;19932;-29
2022/03/14 03:28:26;;;;;;;;;;;14.70;66.70;;;;;;5231319;28;19932;-29
2022/03/14 03:30:57;;;;;;;;;;;14.70;67.50;;;;;;5248215;28;20370;-29
2022/03/14 03:33:28;;;;;;;;;;;14.60;66.50;;;;;;5249409;28;19931;-29
2022/03/14 03:35:59;;;;;;;;;;;14.60;66.80;;;;;;5248663;28;19924;-29
2022/03/14 03:38:30;;;;;;;;;;;14.60;67.40;;;;;;5231099;28;19967;-29
2022/03/14 03:41:01;;;;;;;;;;;14.60;66.90;;;;;;5248865;28;20401;-31
2022/03/14 03:43:32;;;;;;;;;;;14.60;66.80;;;;;;5249298;28;19925;-29
2022/03/14 03:46:03;;;;;;;;;;;14.60;66.50;;;;;;5249086;28;19932;-29
2022/03/14 03:48:34;;;;;;;;;;;14.60;66.90;;;;;;5248004;28;19975;-29
2022/03/14 03:51:05;;;;;;;;;;;14.60;66.60;;;;;;5249071;28;19956;-29
2022/03/14 03:53:36;;;;;;;;;;;14.60;66.60;;;;;;5248224;28;20362;-29
2022/03/14 03:56:07;;;;;;;;;;;14.60;66.80;;;;;;5248865;28;20285;-28
2022/03/14 03:58:38;;;;;;;;;;;14.60;66.80;;;;;;5232490;28;19931;-31
2022/03/14 04:01:10;;;;;;;;;;;14.60;66.50;;;;;;5253474;28;19970;-32
2022/03/14 04:03:41;;;;;;;;;;;14.60;66.50;;;;;;5253337;28;20366;-33
2022/03/14 04:06:18;;;;;;;;;;;14.50;66.80;;;;;;5251804;28;19932;-29
2022/03/14 04:08:50;;;;;;;;;;;14.60;66.80;;;;;;5253298;28;19967;-30
2022/03/14 04:11:21;;;;;;;;;;;14.60;66.80;;;;;;5252789;28;19960;-33
2022/03/14 04:13:53;;;;;;;;;;;14.60;66.70;;;;;;5235324;28;20011;-32
2022/03/14 04:16:26;;;;;;;;;;;14.50;66.70;;;;;;5253139;28;19929;-29
2022/03/14 04:18:57;;;;;;;;;;;14.50;66.70;;;;;;5253012;28;19928;-28
2022/03/14 04:21:28;;;;;;;;;;;14.50;67.70;;;;;;5252963;28;20035;-30
2022/03/14 04:23:59;;;;;;;;;;;14.50;66.70;;;;;;5252998;28;19925;-31
2022/03/14 04:26:30;;;;;;;;;;;14.50;67.00;;;;;;5252894;28;20431;-29
2022/03/14 04:29:01;;;;;;;;;;;14.50;66.70;;;;;;5253422;28;20265;-29
2022/03/14 04:31:32;;;;;;;;;;;14.50;67.00;;;;;;5251767;28;19931;-29
2022/03/14 04:34:03;;;;;;;;;;;14.50;66.80;;;;;;5252746;28;20469;-31
2022/03/14 04:36:34;;;;;;;;;;;14.50;66.80;;;;;;5252729;28;20377;-31
2022/03/14 04:39:05;;;;;;;;;;;14.50;67.30;;;;;;5253339;28;19925;-31
2022/03/14 04:41:37;;;;;;;;;;;14.50;66.90;;;;;;5252796;28;20285;-29
2022/03/14 04:44:09;;;;;;;;;;;14.50;66.80;;;;;;5251326;28;19925;-29
2022/03/14 04:46:39;;;;;;;;;;;14.50;66.80;;;;;;5251882;28;19924;-31
2022/03/14 04:49:13;;;;;;;;;;;14.50;66.90;;;;;;5252778;28;19924;-31
2022/03/14 04:51:44;;;;;;;;;;;14.50;67.30;;;;;;5251760;28;20037;-29
2022/03/14 04:54:14;;;;;;;;;;;14.50;67.10;;;;;;5252875;28;20384;-32
2022/03/14 04:56:45;;;;;;;;;;;14.50;67.50;;;;;;5252356;28;19928;-31
2022/03/14 04:59:16;;;;;;;;;;;14.40;67.00;;;;;;5252331;28;20019;-29
2022/03/14 05:01:47;;;;;;;;;;;14.50;67.00;;;;;;5217604;28;20027;-29
2022/03/14 05:04:18;;;;;;;;;;;14.50;66.90;;;;;;5234546;28;19924;-29
2022/03/14 05:06:49;;;;;;;;;;;14.40;67.10;;;;;;5251940;28;19947;-28
2022/03/14 05:09:23;;;;;;;;;;;14.40;67.00;;;;;;5251553;28;19978;-32
2022/03/14 05:11:53;;;;;;;;;;;14.50;67.20;;;;;;5252406;28;20154;-32
2022/03/14 05:14:25;;;;;;;;;;;14.40;67.40;;;;;;5251674;28;20332;-33
2022/03/14 05:16:56;;;;;;;;;;;14.40;67.00;;;;;;5233887;28;19928;-33
2022/03/14 05:19:27;;;;;;;;;;;14.40;67.10;;;;;;5251851;28;19924;-29
2022/03/14 05:21:58;;;;;;;;;;;14.40;67.20;;;;;;5251867;28;20285;-33
2022/03/14 05:24:29;;;;;;;;;;;14.40;67.00;;;;;;5234433;28;19978;-29
2022/03/14 05:26:59;;;;;;;;;;;14.40;67.00;;;;;;5251585;28;20381;-29
2022/03/14 05:29:30;;;;;;;;;;;14.40;67.40;;;;;;5250087;28;19925;-31
2022/03/14 05:32:01;;;;;;;;;;;14.40;67.40;;;;;;5250537;28;20293;-32
2022/03/14 05:34:34;;;;;;;;;;;14.40;67.50;;;;;;5234407;28;20362;-29
2022/03/14 05:37:05;;;;;;;;;;;14.40;67.20;;;;;;5251237;28;19924;-28
2022/03/14 05:39:36;;;;;;;;;;;14.40;67.30;;;;;;5251048;28;19928;-28
2022/03/14 05:42:07;;;;;;;;;;;14.40;67.30;;;;;;5250681;28;19925;-33
2022/03/14 05:44:38;;;;;;;;;;;14.40;67.50;;;;;;5250167;28;20001;-29
2022/03/14 05:47:09;;;;;;;;;;;14.40;67.20;;;;;;5233310;28;19929;-28
2022/03/14 05:49:40;;;;;;;;;;;14.40;67.00;;;;;;5232603;28;20021;-32
2022/03/14 05:52:11;;;;;;;;;;;14.40;65.80;;;;;;5267054;28;20336;-28
2022/03/14 05:54:42;;;;;;;;;;;14.40;65.10;;;;;;5251406;28;19932;-29
2022/03/14 05:57:13;;;;;;;;;;;14.40;65.10;;;;;;5266846;28;19928;-32
2022/03/14 05:59:45;;;;;;;;;;;14.30;65.00;;;;;;5250875;28;19928;-29
2022/03/14 06:02:22;;;;;;;;;;;14.30;64.90;;;;;;5251084;28;19925;-32
2022/03/14 06:04:53;;;;;;;;;;;14.30;64.90;;;;;;5266379;28;19924;-31
2022/03/14 06:07:24;;;;;;;;;;;14.40;65.00;;;;;;5250895;28;20289;-31
2022/03/14 06:09:56;;;;;;;;;;;14.40;65.10;;;;;;5251231;28;19974;-28
2022/03/14 06:12:27;;;;;;;;;;;14.40;70.90;;;;;;5251018;28;20382;-29
2022/03/14 06:14:59;;;;;;;;;;;14.50;73.90;;;;;;5232364;28;19924;-28
2022/03/14 06:17:30;;;;;;;;;;;14.60;73.00;;;;;;5250696;28;20003;-30
2022/03/14 06:20:02;;;;;;;;;;;14.70;81.30;;;;;;5266214;28;19931;-31
2022/03/14 06:22:35;;;;;;;;;;;14.80;83.90;;;;;;5250429;28;19924;-28
2022/03/14 06:25:07;;;;;;;;;;;14.90;82.00;;;;;;5266183;28;19928;-32
2022/03/14 06:27:37;;;;;;;;;;;14.90;82.40;;;;;;5250316;28;19924;-33
2022/03/14 06:30:09;;;;;;;;;;;15.00;79.00;;;;;;5266069;28;20380;-30
2022/03/14 06:32:40;;;;;;;;;;;15.10;77.10;;;;;;5250452;28;19932;-32
2022/03/14 06:35:14;;;;;;;;;;;15.00;80.40;;;;;;5250342;28;20427;-29
2022/03/14 06:37:45;;;;;;;;;;;15.00;77.00;;;;;;5250597;28;19931;-28
2022/03/14 06:40:17;;;;;;;;;;;15.10;79.90;;;;;;5250150;28;19993;-28
2022/03/14 06:42:51;;;;;;;;;;;15.00;78.20;;;;;;5250231;28;19929;-29
2022/03/14 06:45:23;;;;;;;;;;;15.10;76.30;;;;;;5250218;28;19970;-28
2022/03/14 06:47:54;;;;;;;;;;;15.00;75.00;;;;;;5250084;28;19944;-29
2022/03/14 06:50:26;;;;;;;;;;;15.00;74.20;;;;;;5250016;28;19936;-29
2022/03/14 06:52:56;;;;;;;;;;;15.00;88.70;;;;;;5231142;28;19931;-32
2022/03/14 06:55:28;;;;;;;;;;;15.10;88.80;;;;;;5249996;28;20049;-29
2022/03/14 06:58:00;;;;;;;;;;;15.30;89.70;;;;;;5249879;28;20444;-28
2022/03/14 07:00:31;;;;;;;;;;;15.30;91.70;;;;;;5232183;28;19924;-29
2022/03/14 07:03:02;;;;;;;;;;;15.40;91.80;;;;;;5249543;28;19924;-29
2022/03/14 07:05:33;;;;;;;;;;;15.50;88.40;;;;;;5250030;28;19924;-29
2022/03/14 07:08:04;;;;;;;;;;;15.60;90.00;;;;;;5247344;28;21801;-28
2022/03/14 07:10:42;;;;;;;;;;;15.60;87.00;;;;;;5218300;28;21268;-29
2022/03/14 07:13:13;;;;;;;;;;;15.60;83.20;;;;;;5244402;28;20020;-28
2022/03/14 07:15:47;;;;;;;;;;;14.90;67.40;;;;;;5247413;28;20297;-29
2022/03/14 07:18:18;;;;;;;24.50;20.23;;;13.90;68.70;;;;;;5246537;28;20020;-31
2022/03/14 07:20:49;;;;;;;;;;;13.30;69.30;;;;;;5247169;28;20074;-29
2022/03/14 07:23:20;;;;;;;;;;;13.00;70.40;;;;;;5247991;28;19926;-28
2022/03/14 07:25:51;;;;;;;;;;;12.80;70.40;;;;;;5249936;28;19952;-28
2022/03/14 07:28:22;;;;;;;;;;;12.70;70.70;;;;;;5231522;28;20023;-28
2022/03/14 07:30:58;;;;;;;;;;;12.60;70.90;;;;;;5232246;28;19924;-28
2022/03/14 07:33:28;;;;;;;;;;;12.50;71.00;;;;;;5249260;28;19920;-28
2022/03/14 07:36:02;;;;;;;;;;;12.50;71.30;;;;;;5249230;28;20313;-27
2022/03/14 07:38:35;;;;;;;;;;;12.50;71.40;;;;;;5231528;28;19925;-31
2022/03/14 07:41:11;;;;;;;;;;;12.50;71.20;;;;;;5249518;28;20282;-31
2022/03/14 07:43:44;;;;;;;;;;;12.40;71.40;;;;;;5231370;28;19927;-29
2022/03/14 07:46:21;;;;;;;;;;;12.30;71.30;;;;;;5249729;28;19927;-29
2022/03/14 07:48:52;;;;;;;;;;;12.20;71.10;;;;;;5231463;28;20331;-28
2022/03/14 07:51:24;;;;;;;;;;;12.20;71.30;;;;;;5249135;28;19925;-28
2022/03/14 07:54:00;;;;;;;;;;;12.10;71.60;;;;;;5248898;28;19929;-31
2022/03/14 07:56:31;;;;;;;;;;;12.00;71.70;;;;;;5249405;28;19921;-32
2022/03/14 07:59:03;;;;;;;;;;;12.20;71.30;;;;;;5214555;28;19926;-31
2022/03/14 08:01:34;;;;;;;;;;;12.50;70.90;;;;;;5249417;28;19924;-29
2022/03/14 08:04:07;;;;;;;;;;;12.90;70.40;;;;;;5231362;28;19982;-29
2022/03/14 08:06:41;;;;;;;;;;;13.10;69.90;;;;;;5231342;28;19920;-33
2022/03/14 08:09:12;;;;;;;;;;;13.40;69.60;;;;;;5231264;28;19928;-29
2022/03/14 08:11:43;;;;;;;;;;;13.60;69.10;;;;;;5231231;28;20281;-30
2022/03/14 08:14:15;;;;;;;;;;;13.80;68.90;;;;;;5231119;28;19927;-30
2022/03/14 08:16:47;;;;;;;;;;;14.00;69.00;;;;;;5248862;28;20287;-29
2022/03/14 08:19:20;;;;;;;;;;;14.10;68.70;;;;;;5249099;28;19920;-29
2022/03/14 08:21:57;;;;;;;;;;;14.30;69.10;;;;;;5249250;28;19966;-32
2022/03/14 08:24:28;;;;;;;;;;;14.40;69.10;;;;;;5248822;28;19921;-29
2022/03/14 08:26:59;;;;;;;;;;;14.50;69.10;;;;;;5248627;28;19931;-30
2022/03/14 08:29:30;;;;;;;;;;;14.60;68.70;;;;;;5231090;28;20354;-28
2022/03/14 08:32:01;;;;;;;;;;;14.60;71.10;;;;;;5249139;28;20331;-29
2022/03/14 08:34:31;;;;;;;;;;;14.70;69.10;;;;;;5248791;28;19920;-32
2022/03/14 08:37:03;;;;;;;;;;;14.70;69.30;;;;;;5248753;28;19921;-30
2022/03/14 08:39:34;;;;;;;;;;;14.80;71.70;;;;;;5231530;28;20018;-32
2022/03/14 08:42:06;;;;;;;;;;;14.80;71.00;;;;;;5214461;28;19936;-32
2022/03/14 08:44:37;;;;;;;;;;;14.90;72.00;;;;;;5250184;28;19920;-30
2022/03/14 08:47:09;;;;;;;;;;;14.90;79.90;;;;;;5234143;28;19920;-29
2022/03/14 08:49:39;;;;;;;;;;;15.00;84.80;;;;;;5252140;28;19920;-30
2022/03/14 08:52:10;;;;;;;;;;;15.00;78.60;;;;;;5234179;28;19927;-32
2022/03/14 08:54:41;;;;;;;;;;;15.10;77.50;;;;;;5252760;28;19921;-30
2022/03/14 08:57:12;;;;;;;;;;;15.10;73.70;;;;;;5252142;28;19920;-29
2022/03/14 08:59:44;;;;;;;;;;;15.20;76.30;;;;;;5252420;28;19975;-28
2022/03/14 09:02:15;;;;;;;;;;;15.40;78.20;;;;;;5234424;28;19969;-29
2022/03/14 09:04:51;;;;;;;;;;;15.40;73.00;;;;;;5252196;28;19920;-29
2022/03/14 09:07:26;;;;;;;;;;;15.30;67.50;;;;;;5251977;28;19920;-29
2022/03/14 09:10:04;;;;;;;;;;;15.30;66.90;;;;;;5233926;28;19935;-30
2022/03/14 09:12:37;;;;;;;;;;;15.30;67.20;;;;;;5233414;28;20277;-30
2022/03/14 09:15:09;;;;;;;;;;;15.20;67.30;;;;;;5251693;28;19921;-30
2022/03/14 09:17:47;;;;;;;;;;;15.20;67.50;;;;;;5251729;28;19951;-31
2022/03/14 09:20:21;;;;;;;;;;;15.10;67.70;;;;;;5234442;28;19942;-30
2022/03/14 09:22:53;;;;;;;;;;;15.10;67.20;;;;;;5252037;28;20273;-29
2022/03/14 09:25:25;;;;;;;;;;;15.10;67.10;;;;;;5233822;28;19921;-32
2022/03/14 09:27:56;;;;;;;;;;;15.10;66.70;;;;;;5251714;28;19931;-32
2022/03/14 09:30:27;;;;;;;;;;;15.10;67.70;;;;;;5234006;28;19920;-29
2022/03/14 09:32:59;;;;;;;;;;;15.10;66.90;;;;;;5251688;28;20254;-32
2022/03/14 09:35:30;;;;;;;;;;;15.10;66.90;;;;;;5251550;28;19920;-30
2022/03/14 09:38:01;;;;;;;;;;;15.10;68.50;;;;;;5252202;28;19920;-29
2022/03/14 09:40:31;;;;;;;;;;;15.10;68.20;;;;;;5233704;28;19921;-29
2022/03/14 09:43:18;;;;;;;;;;;15.10;67.10;;;;;;5234059;28;19920;-29
2022/03/14 09:45:49;;;;;;;;;;;15.00;66.60;;;;;;5217600;28;20281;-29
2022/03/14 09:48:20;;;;;;;;;;;15.00;67.00;;;;;;5216711;28;19924;-29
2022/03/14 09:50:51;;;;;;;;;;;15.00;67.80;;;;;;5233279;28;19924;-29
2022/03/14 09:53:22;;;;;;;;;;;15.10;67.50;;;;;;5229144;28;19921;-29
2022/03/14 09:55:53;;;;;;;;;;;15.10;67.60;;;;;;5229294;28;19995;-30
2022/03/14 09:58:26;;;;;;;;;;;15.10;67.30;;;;;;5229257;28;19924;-32
2022/03/14 10:00:59;;;;;;;;;;;15.10;67.90;;;;;;5230534;28;19925;-32
2022/03/14 10:03:31;;;;;;;;;;;15.10;69.50;;;;;;5229852;28;19927;-31
2022/03/14 10:06:01;;;;;;;;;;;15.00;68.20;;;;;;5230329;28;20426;-29
2022/03/14 10:08:34;;;;;;;;;;;15.00;66.90;;;;;;5229113;28;19939;-30
2022/03/14 10:11:07;;;;;;;;;;;15.10;68.00;;;;;;5212710;28;20354;-33
2022/03/14 10:13:38;;;;;;;;;;;15.10;67.00;;;;;;5246380;28;20277;-30
2022/03/14 10:16:09;;;;;;;;;;;15.00;67.20;;;;;;5230220;28;19920;-29
2022/03/14 10:18:53;;;;;;;;;;;15.10;65.90;;;;;;5230023;28;19974;-32
2022/03/14 10:21:43;;;;;;;;;;;15.00;65.50;;;;;;5228748;28;19925;-33
2022/03/14 10:24:19;;;;;;;;;;;15.00;65.50;;;;;;5230118;28;20416;-30
2022/03/14 10:26:56;;;;;;;;;;;15.00;65.80;;;;;;5229151;28;19921;-30
2022/03/14 10:29:29;;;;;;;;;;;15.00;65.90;;;;;;5228515;28;19920;-30
2022/03/14 10:32:01;;;;;;;;;;;15.00;66.00;;;;;;5227571;28;19921;-29
2022/03/14 10:34:34;;;;;;;;;;;15.10;66.10;;;;;;5211303;28;20381;-33
2022/03/14 10:37:07;;;;;;;;;;;15.10;66.10;;;;;;5227626;28;19928;-30
2022/03/14 10:39:39;;;;;;;;;;;15.00;66.10;;;;;;5227480;28;19967;-32
2022/03/14 10:42:13;;;;;;;;;;;15.10;66.00;;;;;;5227711;28;19920;-29
2022/03/14 10:44:46;;;;;;;;;;;15.10;66.00;;;;;;5210824;28;19975;-29
2022/03/14 10:47:19;;;;;;;;;;;15.10;66.10;;;;;;5186515;28;19928;-30
2022/03/14 10:49:51;;;;;;;;;;;15.10;66.20;;;;;;5169875;28;19925;-28
2022/03/14 10:52:22;;;;;;;;;;;15.20;66.40;;;;;;5186008;28;19921;-29
2022/03/14 10:54:55;;;;;;;;;;;15.20;66.70;;;;;;5185919;28;19929;-29
2022/03/14 10:57:29;;;;;;;;;;;15.20;66.60;;;;;;5186443;28;20291;-29
2022/03/14 11:00:02;;;;;;;;;;;15.20;66.60;;;;;;5186033;28;19921;-29
2022/03/14 11:02:34;;;;;;;;;;;15.20;66.50;;;;;;5186553;28;20110;-31
2022/03/14 11:05:09;;;;;;;;;;;15.20;66.30;;;;;;5185911;28;19928;-29
2022/03/14 11:07:43;;;;;;;;;;;15.20;66.40;;;;;;5185464;28;19971;-33
2022/03/14 11:10:14;;;;;;;;;;;15.20;66.80;;;;;;5185825;28;19926;-31
2022/03/14 11:12:45;;;;;;;;;;;15.20;66.30;;;;;;5185850;28;19945;-29
2022/03/14 11:15:19;;;;;;;;;;;15.20;66.40;;;;;;5185627;28;19969;-30
2022/03/14 11:17:52;;;;;;;;;;;15.20;67.30;;;;;;5202077;28;19960;-31
2022/03/14 11:20:23;;;;;;;;;;;15.20;66.60;;;;;;5185956;28;19921;-29
2022/03/14 11:22:53;;;;;;;;;;;15.20;66.20;;;;;;5201999;28;19932;-31
2022/03/14 11:25:26;;;;;;;;;;;15.20;66.20;;;;;;5220116;28;19920;-29
2022/03/14 11:27:57;;;;;;;;;;;15.20;66.50;;;;;;5228740;28;20313;-29
2022/03/14 11:30:29;;;;;;;;;;;15.20;66.40;;;;;;5227391;28;19920;-30
2022/03/14 11:33:03;;;;;;;;;;;15.20;65.60;;;;;;5227600;28;19921;-30
2022/03/14 11:35:34;;;;;;;;;;;15.10;65.30;;;;;;5228897;28;19928;-29
2022/03/14 11:38:05;;;;;;;;;;;15.20;65.40;;;;;;5227601;28;19966;-31
2022/03/14 11:40:52;;;;;;;;;;;15.10;65.30;;;;;;5227461;28;19927;-29
2022/03/14 11:43:29;;;;;;;;;;;15.20;65.50;;;;;;5228333;28;20281;-30
2022/03/14 11:46:01;;;;;;;;;;;15.10;65.60;;;;;;5227787;28;19920;-29
2022/03/14 11:48:32;;;;;;;;;;;15.10;65.80;;;;;;5210660;28;19920;-29
2022/03/14 11:51:06;;;;;;;;;;;15.10;69.10;;;;;;5227332;28;20415;-29
2022/03/14 11:53:46;;;;;;;;;;;15.10;67.10;;;;;;5204276;28;19921;-29
2022/03/14 11:57:07;;;;;;;;;;;14.90;66.20;;;;;;5131872;28;19929;-29
2022/03/14 11:59:38;;;;;;;;;;;13.70;68.70;;;;;;5142672;28;19964;-28
2022/03/14 12:02:09;;;;;;;;;;;13.00;69.50;;;;;;5128940;28;19922;-29
2022/03/14 12:04:40;;;;;;;;;;;12.60;71.30;;;;;;5112750;28;20434;-30
2022/03/14 12:07:12;;;;;;;;;;;12.40;69.70;;;;;;5145336;28;19922;-32
2022/03/14 12:09:46;;;;;;;25.40;20.00;;;12.20;70.10;;;;;;5143268;28;19922;-29
2022/03/14 12:12:21;;;;;;;22.97;18.53;;;12.20;70.60;;;;;;5112853;28;20055;-29
2022/03/14 12:14:59;;;;;;;23.37;18.10;;;12.20;71.20;;;;;;5197554;28;20403;-29
2022/03/14 12:17:36;;;;;;;21.23;18.10;;;12.10;69.90;;;;;;5206991;28;20048;-29
2022/03/14 12:20:16;;;;;;;23.77;18.80;;;12.10;70.30;;;;;;5208870;28;20451;-29
2022/03/14 12:22:48;;;;;;;23.33;17.73;;;12.10;69.90;;;;;;5208366;28;20123;-31
2022/03/14 12:25:44;;;;;;;22.87;18.93;;;12.10;70.20;;;;;;5191483;28;20045;-29
2022/03/14 12:28:31;;;;;;;27.90;20.93;;;12.10;70.70;;;;;;5208663;28;20041;-30
2022/03/14 12:31:13;;;;;;;26.00;20.97;;;12.10;71.00;;;;;;5193883;28;20060;-29
2022/03/14 12:33:48;;;;;;;24.93;20.27;;;12.10;70.70;;;;;;5192490;28;20057;-29
2022/03/14 12:36:22;;;;;;;25.60;20.23;;;12.10;71.10;;;;;;5192788;28;20050;-29
2022/03/14 12:39:06;;;;;;;23.70;18.73;;;12.10;71.60;;;;;;5225263;28;20057;-29
2022/03/14 12:41:37;;;;;;;;;;;12.30;70.60;;;;;;5208984;28;20096;-32
2022/03/14 12:44:24;;;;;;;;;;;12.60;69.90;;;;;;5192639;28;19921;-31
2022/03/14 12:46:56;;;;;;;;;;;12.90;69.20;;;;;;5196406;28;20023;-30
2022/03/14 12:49:45;;;;;;;;;;;13.20;68.40;;;;;;5209869;28;19921;-31
2022/03/14 12:52:17;;;;;;;;;;;13.40;68.10;;;;;;5215078;28;20286;-31
2022/03/14 12:54:48;;;;;;;;;;;13.50;68.00;;;;;;5231995;28;19928;-30
2022/03/14 12:57:25;;;;;;;;;;;13.70;67.80;;;;;;5230524;28;20270;-29
2022/03/14 12:59:59;;;;;;;;;;;13.80;67.40;;;;;;5213922;28;20313;-30
2022/03/14 13:02:30;;;;;;;;;;;13.90;67.10;;;;;;5230100;28;19920;-29
2022/03/14 13:05:02;;;;;;;;;;;14.00;67.20;;;;;;5213503;28;19927;-29
2022/03/14 13:07:35;;;;;;;;;;;14.10;66.90;;;;;;5198057;28;19925;-29
2022/03/14 13:10:10;;;;;;;;;;;14.20;66.50;;;;;;5230198;28;19970;-30
2022/03/14 13:12:41;;;;;;;;;;;14.30;66.30;;;;;;5231414;28;19921;-29
2022/03/14 13:15:14;;;;;;;;;;;14.30;65.90;;;;;;5197545;28;19921;-29
2022/03/14 13:17:52;;;;;;;;;;;14.20;65.50;;;;;;5152692;28;19921;-29
2022/03/14 13:20:24;;;;;;;;;;;13.40;66.10;;;;;;5167838;28;20037;-29
2022/03/14 13:22:58;;;;;;;;;;;12.90;66.90;;;;;;5168007;28;19956;-29
2022/03/14 13:25:30;;;;;;;;;;;12.70;68.30;;;;;;5167695;28;19921;-29
2022/03/14 13:28:01;;;;;;;;;;;12.50;68.60;;;;;;5167580;28;19926;-29
2022/03/14 13:30:42;;;;;;;;;;;12.40;71.00;;;;;;5166877;28;20348;-29
2022/03/14 13:33:39;;;;;;;;;;;12.40;69.90;;;;;;5179847;28;19921;-29
2022/03/14 13:36:12;;;;;;;;;;;12.30;71.00;;;;;;5126881;29;20388;-29
2022/03/14 13:38:49;;;;;;;;;;;12.40;70.40;;;;;;5127064;29;20008;-29
2022/03/14 13:41:22;;;;;;;;;;;12.40;71.00;;;;;;5127608;29;19923;-29
2022/03/14 13:43:53;;;;;;;;;;;12.40;70.10;;;;;;5127142;29;19922;-29
2022/03/14 13:46:34;;;;;;;;;;;12.40;70.00;;;;;;5127491;28;19922;-29
2022/03/14 13:49:16;;;;;;;;;;;12.40;70.80;;;;;;5144970;28;20315;-29
2022/03/14 13:51:56;;;;;;;;;;;12.50;70.90;;;;;;5166907;28;19921;-29
2022/03/14 13:54:32;;;;;;;;;;;12.60;72.10;;;;;;5166835;28;19965;-29
2022/03/14 13:57:05;;;;;;;;;;;12.60;71.90;;;;;;5167034;28;19921;-29
2022/03/14 13:59:55;;;;;;;;;;;12.70;73.00;;;;;;5134832;28;19921;-29
2022/03/14 14:02:37;;;;;;;;;;;12.80;72.30;;;;;;5169507;28;19976;-29
2022/03/14 14:05:12;;;;;;;;;;;12.80;71.60;;;;;;5168448;28;20397;-29
2022/03/14 14:07:50;;;;;;;;;;;12.80;70.90;;;;;;5184489;28;19921;-29
2022/03/14 14:10:23;;;;;;;;;;;12.90;71.70;;;;;;5184545;28;19929;-33
2022/03/14 14:13:07;;;;;;;;;;;12.90;71.50;;;;;;5205705;28;19963;-32
2022/03/14 14:15:41;;;;;;;;;;;13.00;71.00;;;;;;5248773;28;19924;-33
2022/03/14 14:18:13;;;;;;;;;;;13.00;71.60;;;;;;5248498;28;19920;-29
2022/03/14 14:20:44;;;;;;;;;;;13.10;71.10;;;;;;5248577;28;20378;-29
2022/03/14 14:23:19;;;;;;;;;;;13.20;70.60;;;;;;5248055;28;19928;-30
2022/03/14 14:25:50;;;;;;;;;;;13.20;70.70;;;;;;5248658;28;20324;-29
2022/03/14 14:28:24;;;;;;;;;;;13.30;70.80;;;;;;5248163;28;19924;-32
2022/03/14 14:30:57;;;;;;;;;;;13.20;69.90;;;;;;5230970;28;19932;-31
2022/03/14 14:33:32;;;;;;;;;;;13.30;70.60;;;;;;5230192;28;19943;-32
2022/03/14 14:36:04;;;;;;;;;;;13.30;69.90;;;;;;5248933;28;20390;-32
2022/03/14 14:38:37;;;;;;;;;;;13.40;70.10;;;;;;5250447;28;19924;-31
2022/03/14 14:41:11;;;;;;;;;;;13.40;69.90;;;;;;5232932;28;19935;-32
2022/03/14 14:43:46;;;;;;;;;;;13.40;69.50;;;;;;5249939;28;20372;-31